sensor_id;sensor_type;location;lat;lon;timestamp;P1;durP1;ratioP1;P2;durP2;ratioP2
1625;SDS011;806;48.770;9.156;2023-05-02T00:00:26;1.20;;;0.90;;
1625;SDS011;806;48.770;9.156;2023-05-02T00:02:54;3.07;;;1.00;;
1625;SDS011;806;48.770;9.156;2023-05-02T00:05:21;1.60;;;1.10;;
1625;SDS011;806;48.770;9.156;2023-05-02T00:07:49;1.90;;;0.90;;
1625;SDS011;806;48.770;9.156;2023-05-02T00:10:16;1.50;;;1.00;;
1625;SDS011;806;48.770;9.156;2023-05-02T00:12:44;1.40;;;1.10;;
1625;SDS011;806;48.770;9.156;2023-05-02T00:15:11;1.40;;;1.08;;
1625;SDS011;806;48.770;9.156;2023-05-02T00:17:38;1.20;;;0.97;;
1625;SDS011;806;48.770;9.156;2023-05-02T00:20:06;1.50;;;1.00;;
1625;SDS011;806;48.770;9.156;2023-05-02T00:22:34;1.70;;;1.00;;
1625;SDS011;806;48.770;9.156;2023-05-02T00:25:03;1.50;;;1.00;;
1625;SDS011;806;48.770;9.156;2023-05-02T00:27:31;1.40;;;1.20;;
1625;SDS011;806;48.770;9.156;2023-05-02T00:29:58;1.70;;;1.00;;
1625;SDS011;806;48.770;9.156;2023-05-02T00:32:25;1.50;;;1.00;;
1625;SDS011;806;48.770;9.156;2023-05-02T00:34:53;1.67;;;1.20;;
1625;SDS011;806;48.770;9.156;2023-05-02T00:37:20;1.50;;;1.10;;
1625;SDS011;806;48.770;9.156;2023-05-02T00:39:52;1.80;;;1.10;;
1625;SDS011;806;48.770;9.156;2023-05-02T00:42:21;1.35;;;1.00;;
1625;SDS011;806;48.770;9.156;2023-05-02T00:44:48;1.60;;;1.00;;
1625;SDS011;806;48.770;9.156;2023-05-02T00:47:15;1.58;;;1.10;;
1625;SDS011;806;48.770;9.156;2023-05-02T00:49:42;1.10;;;0.90;;
1625;SDS011;806;48.770;9.156;2023-05-02T00:52:09;1.30;;;0.90;;
1625;SDS011;806;48.770;9.156;2023-05-02T00:54:36;1.30;;;0.98;;
1625;SDS011;806;48.770;9.156;2023-05-02T00:57:03;1.20;;;0.90;;
1625;SDS011;806;48.770;9.156;2023-05-02T00:59:32;1.60;;;1.08;;
1625;SDS011;806;48.770;9.156;2023-05-02T01:02:03;1.20;;;1.00;;
1625;SDS011;806;48.770;9.156;2023-05-02T01:04:39;2.00;;;1.00;;
1625;SDS011;806;48.770;9.156;2023-05-02T01:07:18;1.20;;;1.00;;
1625;SDS011;806;48.770;9.156;2023-05-02T01:09:58;1.10;;;0.90;;
1625;SDS011;806;48.770;9.156;2023-05-02T01:12:30;1.30;;;1.00;;
1625;SDS011;806;48.770;9.156;2023-05-02T01:15:05;1.63;;;1.00;;
1625;SDS011;806;48.770;9.156;2023-05-02T01:17:35;1.30;;;1.00;;
1625;SDS011;806;48.770;9.156;2023-05-02T01:20:04;1.40;;;1.10;;
1625;SDS011;806;48.770;9.156;2023-05-02T01:22:35;1.40;;;0.90;;
1625;SDS011;806;48.770;9.156;2023-05-02T01:25:07;2.10;;;1.00;;
1625;SDS011;806;48.770;9.156;2023-05-02T01:27:46;1.30;;;1.00;;
1625;SDS011;806;48.770;9.156;2023-05-02T01:30:23;1.83;;;1.00;;
1625;SDS011;806;48.770;9.156;2023-05-02T01:32:52;1.70;;;1.40;;
1625;SDS011;806;48.770;9.156;2023-05-02T01:35:22;1.50;;;1.10;;
1625;SDS011;806;48.770;9.156;2023-05-02T01:37:51;1.30;;;1.00;;
1625;SDS011;806;48.770;9.156;2023-05-02T01:40:20;1.90;;;1.05;;
1625;SDS011;806;48.770;9.156;2023-05-02T01:42:49;1.20;;;1.00;;
1625;SDS011;806;48.770;9.156;2023-05-02T01:45:17;1.38;;;1.00;;
1625;SDS011;806;48.770;9.156;2023-05-02T01:47:47;1.60;;;1.08;;
1625;SDS011;806;48.770;9.156;2023-05-02T01:50:16;1.90;;;1.00;;
1625;SDS011;806;48.770;9.156;2023-05-02T01:52:45;1.30;;;0.98;;
1625;SDS011;806;48.770;9.156;2023-05-02T01:55:14;1.20;;;1.00;;
1625;SDS011;806;48.770;9.156;2023-05-02T01:57:43;1.40;;;1.00;;
1625;SDS011;806;48.770;9.156;2023-05-02T02:00:13;1.40;;;1.00;;
1625;SDS011;806;48.770;9.156;2023-05-02T02:02:42;1.50;;;1.10;;
1625;SDS011;806;48.770;9.156;2023-05-02T02:05:12;1.60;;;1.10;;
1625;SDS011;806;48.770;9.156;2023-05-02T02:07:40;1.52;;;1.10;;
1625;SDS011;806;48.770;9.156;2023-05-02T02:10:08;2.10;;;1.20;;
1625;SDS011;806;48.770;9.156;2023-05-02T02:12:37;1.60;;;1.10;;
1625;SDS011;806;48.770;9.156;2023-05-02T02:15:08;1.30;;;1.02;;
1625;SDS011;806;48.770;9.156;2023-05-02T02:17:45;1.40;;;1.10;;
1625;SDS011;806;48.770;9.156;2023-05-02T02:20:16;1.73;;;1.00;;
1625;SDS011;806;48.770;9.156;2023-05-02T02:22:45;1.50;;;1.00;;
1625;SDS011;806;48.770;9.156;2023-05-02T02:25:14;1.70;;;1.35;;
1625;SDS011;806;48.770;9.156;2023-05-02T02:27:42;1.60;;;1.20;;
1625;SDS011;806;48.770;9.156;2023-05-02T02:30:09;1.70;;;1.40;;
1625;SDS011;806;48.770;9.156;2023-05-02T02:32:37;1.40;;;1.05;;
1625;SDS011;806;48.770;9.156;2023-05-02T02:35:05;2.10;;;1.10;;
1625;SDS011;806;48.770;9.156;2023-05-02T02:37:36;1.30;;;1.08;;
1625;SDS011;806;48.770;9.156;2023-05-02T02:40:08;1.50;;;1.10;;
1625;SDS011;806;48.770;9.156;2023-05-02T02:42:48;1.38;;;1.10;;
1625;SDS011;806;48.770;9.156;2023-05-02T02:45:24;1.50;;;1.10;;
1625;SDS011;806;48.770;9.156;2023-05-02T02:48:05;2.45;;;1.10;;
1625;SDS011;806;48.770;9.156;2023-05-02T02:50:45;2.30;;;1.10;;
1625;SDS011;806;48.770;9.156;2023-05-02T02:53:26;2.25;;;1.10;;
1625;SDS011;806;48.770;9.156;2023-05-02T02:56:03;1.70;;;1.20;;
1625;SDS011;806;48.770;9.156;2023-05-02T02:58:35;1.50;;;1.10;;
1625;SDS011;806;48.770;9.156;2023-05-02T03:01:09;1.60;;;1.10;;
1625;SDS011;806;48.770;9.156;2023-05-02T03:03:41;2.10;;;1.10;;
1625;SDS011;806;48.770;9.156;2023-05-02T03:06:09;1.85;;;1.08;;
1625;SDS011;806;48.770;9.156;2023-05-02T03:08:41;1.40;;;1.10;;
1625;SDS011;806;48.770;9.156;2023-05-02T03:11:08;1.60;;;1.10;;
1625;SDS011;806;48.770;9.156;2023-05-02T03:13:35;2.00;;;1.10;;
1625;SDS011;806;48.770;9.156;2023-05-02T03:18:54;1.87;;;1.10;;
1625;SDS011;806;48.770;9.156;2023-05-02T03:21:22;1.35;;;1.10;;
1625;SDS011;806;48.770;9.156;2023-05-02T03:23:50;3.17;;;1.20;;
1625;SDS011;806;48.770;9.156;2023-05-02T03:26:17;1.30;;;1.00;;
1625;SDS011;806;48.770;9.156;2023-05-02T03:28:45;2.47;;;1.10;;
1625;SDS011;806;48.770;9.156;2023-05-02T03:31:12;1.40;;;1.05;;
1625;SDS011;806;48.770;9.156;2023-05-02T03:33:39;1.60;;;1.30;;
1625;SDS011;806;48.770;9.156;2023-05-02T03:36:06;1.50;;;1.20;;
1625;SDS011;806;48.770;9.156;2023-05-02T03:38:33;1.73;;;1.20;;
1625;SDS011;806;48.770;9.156;2023-05-02T03:41:02;1.50;;;1.20;;
1625;SDS011;806;48.770;9.156;2023-05-02T03:43:29;1.60;;;1.10;;
1625;SDS011;806;48.770;9.156;2023-05-02T03:45:56;1.58;;;1.10;;
1625;SDS011;806;48.770;9.156;2023-05-02T03:48:29;1.50;;;1.10;;
1625;SDS011;806;48.770;9.156;2023-05-02T03:50:56;2.70;;;1.20;;
1625;SDS011;806;48.770;9.156;2023-05-02T03:53:23;1.70;;;1.10;;
1625;SDS011;806;48.770;9.156;2023-05-02T03:55:50;2.50;;;1.10;;
1625;SDS011;806;48.770;9.156;2023-05-02T03:58:19;1.50;;;1.20;;
1625;SDS011;806;48.770;9.156;2023-05-02T04:00:46;1.63;;;1.10;;
1625;SDS011;806;48.770;9.156;2023-05-02T04:03:13;1.50;;;1.20;;
1625;SDS011;806;48.770;9.156;2023-05-02T04:05:40;1.52;;;1.15;;
1625;SDS011;806;48.770;9.156;2023-05-02T04:08:07;1.60;;;1.20;;
1625;SDS011;806;48.770;9.156;2023-05-02T04:10:34;2.20;;;1.30;;
1625;SDS011;806;48.770;9.156;2023-05-02T04:13:02;2.47;;;1.10;;
1625;SDS011;806;48.770;9.156;2023-05-02T04:15:30;1.67;;;1.30;;
1625;SDS011;806;48.770;9.156;2023-05-02T04:17:58;1.73;;;1.20;;
1625;SDS011;806;48.770;9.156;2023-05-02T04:20:25;1.80;;;1.20;;
1625;SDS011;806;48.770;9.156;2023-05-02T04:22:52;1.48;;;1.15;;
1625;SDS011;806;48.770;9.156;2023-05-02T04:25:19;1.40;;;1.10;;
1625;SDS011;806;48.770;9.156;2023-05-02T04:27:46;1.40;;;1.10;;
1625;SDS011;806;48.770;9.156;2023-05-02T04:30:13;1.77;;;1.20;;
1625;SDS011;806;48.770;9.156;2023-05-02T04:32:42;1.70;;;1.40;;
1625;SDS011;806;48.770;9.156;2023-05-02T04:35:09;1.60;;;1.40;;
1625;SDS011;806;48.770;9.156;2023-05-02T04:37:36;1.80;;;1.20;;
1625;SDS011;806;48.770;9.156;2023-05-02T04:40:03;1.70;;;1.40;;
1625;SDS011;806;48.770;9.156;2023-05-02T04:42:31;1.67;;;1.20;;
1625;SDS011;806;48.770;9.156;2023-05-02T04:44:58;2.00;;;1.40;;
1625;SDS011;806;48.770;9.156;2023-05-02T04:47:25;1.80;;;1.30;;
1625;SDS011;806;48.770;9.156;2023-05-02T04:49:53;2.10;;;1.90;;
1625;SDS011;806;48.770;9.156;2023-05-02T04:52:20;1.30;;;1.00;;
1625;SDS011;806;48.770;9.156;2023-05-02T04:54:47;1.90;;;1.40;;
1625;SDS011;806;48.770;9.156;2023-05-02T04:57:15;1.98;;;1.30;;
1625;SDS011;806;48.770;9.156;2023-05-02T04:59:42;1.60;;;1.10;;
1625;SDS011;806;48.770;9.156;2023-05-02T05:02:08;1.60;;;1.20;;
1625;SDS011;806;48.770;9.156;2023-05-02T05:04:36;1.70;;;1.20;;
1625;SDS011;806;48.770;9.156;2023-05-02T05:07:04;1.60;;;1.40;;
1625;SDS011;806;48.770;9.156;2023-05-02T05:09:31;2.10;;;1.40;;
1625;SDS011;806;48.770;9.156;2023-05-02T05:11:58;2.10;;;1.50;;
1625;SDS011;806;48.770;9.156;2023-05-02T05:14:26;1.60;;;1.50;;
1625;SDS011;806;48.770;9.156;2023-05-02T05:16:53;2.00;;;1.40;;
1625;SDS011;806;48.770;9.156;2023-05-02T05:19:20;2.00;;;1.30;;
1625;SDS011;806;48.770;9.156;2023-05-02T05:21:47;1.80;;;1.50;;
1625;SDS011;806;48.770;9.156;2023-05-02T05:24:15;2.38;;;1.50;;
1625;SDS011;806;48.770;9.156;2023-05-02T05:26:43;1.80;;;1.20;;
1625;SDS011;806;48.770;9.156;2023-05-02T05:29:10;2.30;;;1.30;;
1625;SDS011;806;48.770;9.156;2023-05-02T05:31:36;2.40;;;1.60;;
1625;SDS011;806;48.770;9.156;2023-05-02T05:34:03;2.10;;;1.50;;
1625;SDS011;806;48.770;9.156;2023-05-02T05:36:31;1.95;;;1.40;;
1625;SDS011;806;48.770;9.156;2023-05-02T05:38:58;2.60;;;1.42;;
1625;SDS011;806;48.770;9.156;2023-05-02T05:41:26;1.52;;;1.40;;
1625;SDS011;806;48.770;9.156;2023-05-02T05:43:54;2.50;;;1.40;;
1625;SDS011;806;48.770;9.156;2023-05-02T05:46:21;2.58;;;1.90;;
1625;SDS011;806;48.770;9.156;2023-05-02T05:48:48;2.10;;;1.45;;
1625;SDS011;806;48.770;9.156;2023-05-02T05:51:15;1.90;;;1.63;;
1625;SDS011;806;48.770;9.156;2023-05-02T05:53:42;2.67;;;1.50;;
1625;SDS011;806;48.770;9.156;2023-05-02T05:56:09;2.47;;;2.00;;
1625;SDS011;806;48.770;9.156;2023-05-02T05:58:38;2.33;;;1.70;;
1625;SDS011;806;48.770;9.156;2023-05-02T06:01:07;2.83;;;2.00;;
1625;SDS011;806;48.770;9.156;2023-05-02T06:03:34;3.00;;;1.80;;
1625;SDS011;806;48.770;9.156;2023-05-02T06:06:01;1.92;;;1.50;;
1625;SDS011;806;48.770;9.156;2023-05-02T06:08:28;3.88;;;1.65;;
1625;SDS011;806;48.770;9.156;2023-05-02T06:10:55;4.00;;;2.08;;
1625;SDS011;806;48.770;9.156;2023-05-02T06:13:22;1.90;;;1.70;;
1625;SDS011;806;48.770;9.156;2023-05-02T06:15:50;2.30;;;2.05;;
1625;SDS011;806;48.770;9.156;2023-05-02T06:18:17;2.45;;;2.25;;
1625;SDS011;806;48.770;9.156;2023-05-02T06:20:44;4.00;;;3.03;;
1625;SDS011;806;48.770;9.156;2023-05-02T06:23:11;2.50;;;2.10;;
1625;SDS011;806;48.770;9.156;2023-05-02T06:25:38;2.78;;;2.40;;
1625;SDS011;806;48.770;9.156;2023-05-02T06:28:05;3.13;;;2.83;;
1625;SDS011;806;48.770;9.156;2023-05-02T06:30:33;4.43;;;3.00;;
1625;SDS011;806;48.770;9.156;2023-05-02T06:33:04;2.63;;;2.20;;
1625;SDS011;806;48.770;9.156;2023-05-02T06:35:31;4.00;;;3.00;;
1625;SDS011;806;48.770;9.156;2023-05-02T06:37:58;3.80;;;3.40;;
1625;SDS011;806;48.770;9.156;2023-05-02T06:40:25;4.20;;;3.60;;
1625;SDS011;806;48.770;9.156;2023-05-02T06:42:52;4.40;;;3.60;;
1625;SDS011;806;48.770;9.156;2023-05-02T06:45:19;5.75;;;4.15;;
1625;SDS011;806;48.770;9.156;2023-05-02T06:47:46;4.60;;;4.20;;
1625;SDS011;806;48.770;9.156;2023-05-02T06:50:15;5.20;;;4.57;;
1625;SDS011;806;48.770;9.156;2023-05-02T06:52:42;5.53;;;4.30;;
1625;SDS011;806;48.770;9.156;2023-05-02T06:55:09;4.70;;;4.13;;
1625;SDS011;806;48.770;9.156;2023-05-02T06:57:36;5.85;;;4.90;;
1625;SDS011;806;48.770;9.156;2023-05-02T07:00:04;5.25;;;4.72;;
1625;SDS011;806;48.770;9.156;2023-05-02T07:02:31;5.75;;;5.18;;
1625;SDS011;806;48.770;9.156;2023-05-02T07:04:58;7.00;;;5.65;;
1625;SDS011;806;48.770;9.156;2023-05-02T07:07:27;5.47;;;4.22;;
1625;SDS011;806;48.770;9.156;2023-05-02T07:09:54;5.22;;;4.72;;
1625;SDS011;806;48.770;9.156;2023-05-02T07:12:21;6.57;;;5.97;;
1625;SDS011;806;48.770;9.156;2023-05-02T07:14:48;5.93;;;5.35;;
1625;SDS011;806;48.770;9.156;2023-05-02T07:17:15;6.88;;;6.18;;
1625;SDS011;806;48.770;9.156;2023-05-02T07:19:42;7.53;;;6.72;;
1625;SDS011;806;48.770;9.156;2023-05-02T07:22:09;7.15;;;6.43;;
1625;SDS011;806;48.770;9.156;2023-05-02T07:24:39;8.00;;;7.13;;
1625;SDS011;806;48.770;9.156;2023-05-02T07:27:07;6.65;;;5.85;;
1625;SDS011;806;48.770;9.156;2023-05-02T07:29:34;8.73;;;6.82;;
1625;SDS011;806;48.770;9.156;2023-05-02T07:32:01;8.18;;;7.35;;
1625;SDS011;806;48.770;9.156;2023-05-02T07:34:28;8.50;;;6.72;;
1625;SDS011;806;48.770;9.156;2023-05-02T07:36:56;7.13;;;6.43;;
1625;SDS011;806;48.770;9.156;2023-05-02T07:39:23;8.00;;;7.20;;
1625;SDS011;806;48.770;9.156;2023-05-02T07:41:52;7.50;;;6.80;;
1625;SDS011;806;48.770;9.156;2023-05-02T07:44:20;8.48;;;7.07;;
1625;SDS011;806;48.770;9.156;2023-05-02T07:46:47;7.28;;;6.57;;
1625;SDS011;806;48.770;9.156;2023-05-02T07:49:14;9.83;;;8.20;;
1625;SDS011;806;48.770;9.156;2023-05-02T07:51:41;11.93;;;8.05;;
1625;SDS011;806;48.770;9.156;2023-05-02T07:54:19;8.60;;;7.70;;
1625;SDS011;806;48.770;9.156;2023-05-02T07:56:51;7.90;;;7.10;;
1625;SDS011;806;48.770;9.156;2023-05-02T07:59:21;8.38;;;7.18;;
1625;SDS011;806;48.770;9.156;2023-05-02T08:01:48;8.10;;;7.25;;
1625;SDS011;806;48.770;9.156;2023-05-02T08:04:15;10.35;;;9.25;;
1625;SDS011;806;48.770;9.156;2023-05-02T08:06:43;9.60;;;8.52;;
1625;SDS011;806;48.770;9.156;2023-05-02T08:09:10;10.20;;;9.02;;
1625;SDS011;806;48.770;9.156;2023-05-02T08:11:37;11.40;;;10.30;;
1625;SDS011;806;48.770;9.156;2023-05-02T08:14:05;10.93;;;9.70;;
1625;SDS011;806;48.770;9.156;2023-05-02T08:16:32;11.98;;;10.43;;
1625;SDS011;806;48.770;9.156;2023-05-02T08:18:59;10.45;;;9.35;;
1625;SDS011;806;48.770;9.156;2023-05-02T08:21:26;12.65;;;10.35;;
1625;SDS011;806;48.770;9.156;2023-05-02T08:23:56;12.38;;;10.20;;
1625;SDS011;806;48.770;9.156;2023-05-02T08:26:24;11.77;;;10.57;;
1625;SDS011;806;48.770;9.156;2023-05-02T08:28:51;12.52;;;10.73;;
1625;SDS011;806;48.770;9.156;2023-05-02T08:31:20;12.43;;;9.63;;
1625;SDS011;806;48.770;9.156;2023-05-02T08:33:47;12.90;;;10.77;;
1625;SDS011;806;48.770;9.156;2023-05-02T08:36:14;11.85;;;10.55;;
1625;SDS011;806;48.770;9.156;2023-05-02T08:38:43;11.05;;;9.50;;
1625;SDS011;806;48.770;9.156;2023-05-02T08:41:12;12.20;;;10.55;;
1625;SDS011;806;48.770;9.156;2023-05-02T08:43:40;11.10;;;9.98;;
1625;SDS011;806;48.770;9.156;2023-05-02T08:46:08;12.43;;;11.13;;
1625;SDS011;806;48.770;9.156;2023-05-02T08:48:38;14.98;;;11.82;;
1625;SDS011;806;48.770;9.156;2023-05-02T08:51:07;12.55;;;9.52;;
1625;SDS011;806;48.770;9.156;2023-05-02T08:53:35;14.20;;;10.93;;
1625;SDS011;806;48.770;9.156;2023-05-02T08:56:03;10.90;;;9.80;;
1625;SDS011;806;48.770;9.156;2023-05-02T08:58:31;11.68;;;10.38;;
1625;SDS011;806;48.770;9.156;2023-05-02T09:00:59;11.48;;;10.00;;
1625;SDS011;806;48.770;9.156;2023-05-02T09:03:29;11.30;;;10.10;;
1625;SDS011;806;48.770;9.156;2023-05-02T09:06:02;12.05;;;9.55;;
1625;SDS011;806;48.770;9.156;2023-05-02T09:08:31;10.73;;;9.60;;
1625;SDS011;806;48.770;9.156;2023-05-02T09:10:58;13.02;;;10.98;;
1625;SDS011;806;48.770;9.156;2023-05-02T09:13:26;11.63;;;10.43;;
1625;SDS011;806;48.770;9.156;2023-05-02T09:15:57;11.85;;;9.57;;
1625;SDS011;806;48.770;9.156;2023-05-02T09:18:27;12.48;;;9.45;;
1625;SDS011;806;48.770;9.156;2023-05-02T09:20:56;14.45;;;9.50;;
1625;SDS011;806;48.770;9.156;2023-05-02T09:23:38;12.60;;;9.63;;
1625;SDS011;806;48.770;9.156;2023-05-02T09:26:10;8.63;;;7.70;;
1625;SDS011;806;48.770;9.156;2023-05-02T09:28:38;9.13;;;8.07;;
1625;SDS011;806;48.770;9.156;2023-05-02T09:31:07;11.32;;;9.93;;
1625;SDS011;806;48.770;9.156;2023-05-02T09:33:35;12.57;;;10.37;;
1625;SDS011;806;48.770;9.156;2023-05-02T09:36:05;8.93;;;8.03;;
1625;SDS011;806;48.770;9.156;2023-05-02T09:38:33;10.52;;;7.97;;
1625;SDS011;806;48.770;9.156;2023-05-02T09:41:02;10.53;;;8.77;;
1625;SDS011;806;48.770;9.156;2023-05-02T09:43:30;10.50;;;7.22;;
1625;SDS011;806;48.770;9.156;2023-05-02T09:45:57;9.40;;;8.40;;
1625;SDS011;806;48.770;9.156;2023-05-02T09:48:26;9.10;;;8.27;;
1625;SDS011;806;48.770;9.156;2023-05-02T09:50:54;11.65;;;8.85;;
1625;SDS011;806;48.770;9.156;2023-05-02T09:53:21;9.30;;;8.40;;
1625;SDS011;806;48.770;9.156;2023-05-02T09:56:02;10.00;;;9.00;;
1625;SDS011;806;48.770;9.156;2023-05-02T09:58:30;11.27;;;9.80;;
1625;SDS011;806;48.770;9.156;2023-05-02T10:00:57;10.63;;;9.35;;
1625;SDS011;806;48.770;9.156;2023-05-02T10:03:25;10.02;;;9.02;;
1625;SDS011;806;48.770;9.156;2023-05-02T10:05:53;10.30;;;9.07;;
1625;SDS011;806;48.770;9.156;2023-05-02T10:08:21;9.50;;;8.50;;
1625;SDS011;806;48.770;9.156;2023-05-02T10:10:52;10.15;;;9.15;;
1625;SDS011;806;48.770;9.156;2023-05-02T10:13:22;10.25;;;9.15;;
1625;SDS011;806;48.770;9.156;2023-05-02T10:15:57;9.35;;;8.45;;
1625;SDS011;806;48.770;9.156;2023-05-02T10:18:26;10.57;;;9.02;;
1625;SDS011;806;48.770;9.156;2023-05-02T10:20:57;11.70;;;9.77;;
1625;SDS011;806;48.770;9.156;2023-05-02T10:23:27;8.65;;;7.72;;
1625;SDS011;806;48.770;9.156;2023-05-02T10:25:56;8.38;;;7.53;;
1625;SDS011;806;48.770;9.156;2023-05-02T10:28:25;9.00;;;8.10;;
1625;SDS011;806;48.770;9.156;2023-05-02T10:30:52;11.20;;;10.00;;
1625;SDS011;806;48.770;9.156;2023-05-02T10:33:20;9.90;;;8.95;;
1625;SDS011;806;48.770;9.156;2023-05-02T10:35:48;10.20;;;9.20;;
1625;SDS011;806;48.770;9.156;2023-05-02T10:38:15;9.20;;;7.47;;
1625;SDS011;806;48.770;9.156;2023-05-02T10:40:49;8.25;;;6.60;;
1625;SDS011;806;48.770;9.156;2023-05-02T10:43:21;7.73;;;6.53;;
1625;SDS011;806;48.770;9.156;2023-05-02T10:45:52;8.65;;;7.82;;
1625;SDS011;806;48.770;9.156;2023-05-02T10:48:20;5.85;;;4.93;;
1625;SDS011;806;48.770;9.156;2023-05-02T10:50:49;6.45;;;5.85;;
1625;SDS011;806;48.770;9.156;2023-05-02T10:53:21;5.20;;;4.80;;
1625;SDS011;806;48.770;9.156;2023-05-02T10:56:13;4.80;;;4.35;;
1625;SDS011;806;48.770;9.156;2023-05-02T10:58:44;5.45;;;3.88;;
1625;SDS011;806;48.770;9.156;2023-05-02T11:04:06;3.40;;;3.10;;
1625;SDS011;806;48.770;9.156;2023-05-02T11:06:35;6.88;;;5.70;;
1625;SDS011;806;48.770;9.156;2023-05-02T11:11:58;6.57;;;4.90;;
1625;SDS011;806;48.770;9.156;2023-05-02T11:14:42;5.18;;;4.68;;
1625;SDS011;806;48.770;9.156;2023-05-02T11:17:16;5.97;;;5.47;;
1625;SDS011;806;48.770;9.156;2023-05-02T11:22:49;7.90;;;5.68;;
1625;SDS011;806;48.770;9.156;2023-05-02T11:25:33;6.85;;;5.50;;
1625;SDS011;806;48.770;9.156;2023-05-02T11:28:02;7.10;;;5.78;;
1625;SDS011;806;48.770;9.156;2023-05-02T11:30:39;6.32;;;5.70;;
1625;SDS011;806;48.770;9.156;2023-05-02T11:33:11;7.35;;;6.65;;
1625;SDS011;806;48.770;9.156;2023-05-02T11:35:44;8.05;;;7.00;;
1625;SDS011;806;48.770;9.156;2023-05-02T11:38:18;6.77;;;5.87;;
1625;SDS011;806;48.770;9.156;2023-05-02T11:40:49;6.68;;;5.97;;
1625;SDS011;806;48.770;9.156;2023-05-02T11:43:20;7.90;;;7.20;;
1625;SDS011;806;48.770;9.156;2023-05-02T11:45:50;7.90;;;7.10;;
1625;SDS011;806;48.770;9.156;2023-05-02T11:48:18;7.07;;;6.37;;
1625;SDS011;806;48.770;9.156;2023-05-02T11:50:46;7.90;;;7.10;;
1625;SDS011;806;48.770;9.156;2023-05-02T11:53:15;8.30;;;7.40;;
1625;SDS011;806;48.770;9.156;2023-05-02T11:55:43;7.95;;;7.18;;
1625;SDS011;806;48.770;9.156;2023-05-02T11:58:12;9.05;;;8.15;;
1625;SDS011;806;48.770;9.156;2023-05-02T12:00:40;8.85;;;7.03;;
1625;SDS011;806;48.770;9.156;2023-05-02T12:03:19;9.23;;;8.32;;
1625;SDS011;806;48.770;9.156;2023-05-02T12:05:50;10.30;;;9.23;;
1625;SDS011;806;48.770;9.156;2023-05-02T12:08:21;9.85;;;8.25;;
1625;SDS011;806;48.770;9.156;2023-05-02T12:10:50;9.85;;;8.70;;
1625;SDS011;806;48.770;9.156;2023-05-02T12:13:19;7.65;;;6.93;;
1625;SDS011;806;48.770;9.156;2023-05-02T12:15:47;10.45;;;7.90;;
1625;SDS011;806;48.770;9.156;2023-05-02T12:18:15;9.50;;;8.60;;
1625;SDS011;806;48.770;9.156;2023-05-02T12:20:44;8.43;;;7.63;;
1625;SDS011;806;48.770;9.156;2023-05-02T12:23:12;7.80;;;7.10;;
1625;SDS011;806;48.770;9.156;2023-05-02T12:25:39;8.80;;;7.67;;
1625;SDS011;806;48.770;9.156;2023-05-02T12:28:07;8.45;;;6.70;;
1625;SDS011;806;48.770;9.156;2023-05-02T12:30:36;8.68;;;7.75;;
1625;SDS011;806;48.770;9.156;2023-05-02T12:33:05;12.65;;;8.75;;
1625;SDS011;806;48.770;9.156;2023-05-02T12:35:33;10.82;;;7.53;;
1625;SDS011;806;48.770;9.156;2023-05-02T12:38:08;9.65;;;8.52;;
1625;SDS011;806;48.770;9.156;2023-05-02T12:40:45;10.80;;;9.70;;
1625;SDS011;806;48.770;9.156;2023-05-02T12:43:14;9.88;;;8.88;;
1625;SDS011;806;48.770;9.156;2023-05-02T12:45:41;10.63;;;9.20;;
1625;SDS011;806;48.770;9.156;2023-05-02T12:48:18;11.10;;;8.35;;
1625;SDS011;806;48.770;9.156;2023-05-02T12:50:47;11.30;;;9.48;;
1625;SDS011;806;48.770;9.156;2023-05-02T12:53:15;9.38;;;8.43;;
1625;SDS011;806;48.770;9.156;2023-05-02T12:55:43;10.93;;;8.20;;
1625;SDS011;806;48.770;9.156;2023-05-02T12:58:12;9.50;;;7.80;;
1625;SDS011;806;48.770;9.156;2023-05-02T13:00:40;10.30;;;9.30;;
1625;SDS011;806;48.770;9.156;2023-05-02T13:03:08;9.63;;;8.35;;
1625;SDS011;806;48.770;9.156;2023-05-02T13:05:35;8.88;;;7.97;;
1625;SDS011;806;48.770;9.156;2023-05-02T13:08:03;9.45;;;8.45;;
1625;SDS011;806;48.770;9.156;2023-05-02T13:10:31;10.30;;;8.00;;
1625;SDS011;806;48.770;9.156;2023-05-02T13:12:59;9.93;;;7.87;;
1625;SDS011;806;48.770;9.156;2023-05-02T13:15:26;8.73;;;7.82;;
1625;SDS011;806;48.770;9.156;2023-05-02T13:17:54;11.40;;;8.05;;
1625;SDS011;806;48.770;9.156;2023-05-02T13:20:21;10.18;;;8.35;;
1625;SDS011;806;48.770;9.156;2023-05-02T13:22:48;8.13;;;6.80;;
1625;SDS011;806;48.770;9.156;2023-05-02T13:25:15;8.68;;;7.47;;
1625;SDS011;806;48.770;9.156;2023-05-02T13:27:43;9.70;;;6.57;;
1625;SDS011;806;48.770;9.156;2023-05-02T13:30:10;8.75;;;6.82;;
1625;SDS011;806;48.770;9.156;2023-05-02T13:32:38;8.85;;;6.25;;
1625;SDS011;806;48.770;9.156;2023-05-02T13:35:06;9.32;;;7.22;;
1625;SDS011;806;48.770;9.156;2023-05-02T13:37:33;8.10;;;6.40;;
1625;SDS011;806;48.770;9.156;2023-05-02T13:40:00;7.80;;;7.07;;
1625;SDS011;806;48.770;9.156;2023-05-02T13:42:28;7.68;;;6.47;;
1625;SDS011;806;48.770;9.156;2023-05-02T13:44:57;8.02;;;6.40;;
1625;SDS011;806;48.770;9.156;2023-05-02T13:47:24;7.70;;;5.50;;
1625;SDS011;806;48.770;9.156;2023-05-02T13:49:51;7.75;;;5.50;;
1625;SDS011;806;48.770;9.156;2023-05-02T13:52:18;6.97;;;5.28;;
1625;SDS011;806;48.770;9.156;2023-05-02T13:54:45;8.27;;;6.30;;
1625;SDS011;806;48.770;9.156;2023-05-02T13:57:12;6.30;;;5.20;;
1625;SDS011;806;48.770;9.156;2023-05-02T13:59:39;6.65;;;5.70;;
1625;SDS011;806;48.770;9.156;2023-05-02T14:02:07;5.78;;;4.45;;
1625;SDS011;806;48.770;9.156;2023-05-02T14:04:34;5.63;;;4.38;;
1625;SDS011;806;48.770;9.156;2023-05-02T14:07:01;7.60;;;6.38;;
1625;SDS011;806;48.770;9.156;2023-05-02T14:09:29;6.80;;;4.53;;
1625;SDS011;806;48.770;9.156;2023-05-02T14:11:56;9.43;;;5.93;;
1625;SDS011;806;48.770;9.156;2023-05-02T14:14:23;6.03;;;4.72;;
1625;SDS011;806;48.770;9.156;2023-05-02T14:16:50;6.70;;;4.78;;
1625;SDS011;806;48.770;9.156;2023-05-02T14:19:18;4.97;;;3.38;;
1625;SDS011;806;48.770;9.156;2023-05-02T14:21:45;4.32;;;3.40;;
1625;SDS011;806;48.770;9.156;2023-05-02T14:24:13;3.50;;;2.33;;
1625;SDS011;806;48.770;9.156;2023-05-02T14:26:40;2.50;;;2.10;;
1625;SDS011;806;48.770;9.156;2023-05-02T14:29:07;3.60;;;2.60;;
1625;SDS011;806;48.770;9.156;2023-05-02T14:31:34;3.67;;;2.45;;
1625;SDS011;806;48.770;9.156;2023-05-02T14:34:01;4.15;;;2.60;;
1625;SDS011;806;48.770;9.156;2023-05-02T14:36:30;3.30;;;2.60;;
1625;SDS011;806;48.770;9.156;2023-05-02T14:38:57;4.22;;;2.50;;
1625;SDS011;806;48.770;9.156;2023-05-02T14:41:24;2.33;;;2.13;;
1625;SDS011;806;48.770;9.156;2023-05-02T14:43:51;3.22;;;1.80;;
1625;SDS011;806;48.770;9.156;2023-05-02T14:46:18;2.50;;;1.70;;
1625;SDS011;806;48.770;9.156;2023-05-02T14:48:45;1.90;;;1.40;;
1625;SDS011;806;48.770;9.156;2023-05-02T14:51:12;2.45;;;1.75;;
1625;SDS011;806;48.770;9.156;2023-05-02T14:53:42;2.80;;;1.80;;
1625;SDS011;806;48.770;9.156;2023-05-02T14:56:12;2.80;;;1.80;;
1625;SDS011;806;48.770;9.156;2023-05-02T14:58:41;3.80;;;1.60;;
1625;SDS011;806;48.770;9.156;2023-05-02T15:01:13;3.67;;;2.10;;
1625;SDS011;806;48.770;9.156;2023-05-02T15:03:41;3.70;;;2.63;;
1625;SDS011;806;48.770;9.156;2023-05-02T15:06:09;2.83;;;1.60;;
1625;SDS011;806;48.770;9.156;2023-05-02T15:08:37;2.70;;;1.80;;
1625;SDS011;806;48.770;9.156;2023-05-02T15:11:06;7.25;;;6.55;;
1625;SDS011;806;48.770;9.156;2023-05-02T15:13:34;2.42;;;1.77;;
1625;SDS011;806;48.770;9.156;2023-05-02T15:16:02;3.40;;;2.00;;
1625;SDS011;806;48.770;9.156;2023-05-02T15:18:29;3.60;;;2.20;;
1625;SDS011;806;48.770;9.156;2023-05-02T15:20:56;4.10;;;2.20;;
1625;SDS011;806;48.770;9.156;2023-05-02T15:23:23;4.30;;;2.50;;
1625;SDS011;806;48.770;9.156;2023-05-02T15:25:50;4.55;;;2.78;;
1625;SDS011;806;48.770;9.156;2023-05-02T15:28:18;3.08;;;2.30;;
1625;SDS011;806;48.770;9.156;2023-05-02T15:30:45;3.85;;;1.90;;
1625;SDS011;806;48.770;9.156;2023-05-02T15:33:13;2.80;;;1.80;;
1625;SDS011;806;48.770;9.156;2023-05-02T15:35:44;3.28;;;2.20;;
1625;SDS011;806;48.770;9.156;2023-05-02T15:38:19;2.63;;;1.58;;
1625;SDS011;806;48.770;9.156;2023-05-02T15:40:52;3.22;;;1.50;;
1625;SDS011;806;48.770;9.156;2023-05-02T15:43:21;2.47;;;1.37;;
1625;SDS011;806;48.770;9.156;2023-05-02T15:45:49;3.15;;;1.55;;
1625;SDS011;806;48.770;9.156;2023-05-02T15:48:16;1.77;;;1.10;;